createdAt,value
2018-12-23T00:00:16.339Z,7.46
2018-12-23T00:02:51.573Z,7.52
2018-12-23T00:05:20.048Z,7.51
2018-12-23T00:07:48.510Z,7.49
2018-12-23T00:10:17.013Z,7.52
2018-12-23T00:12:45.513Z,7.45
2018-12-23T00:15:14.060Z,7.45
2018-12-23T00:17:42.535Z,7.51
2018-12-23T00:20:11.046Z,7.51
2018-12-23T00:22:39.540Z,7.53
2018-12-23T00:25:08.385Z,7.58
2018-12-23T00:27:36.847Z,7.59
2018-12-23T00:30:07.095Z,7.61
2018-12-23T00:32:35.619Z,7.57
2018-12-23T00:35:04.293Z,7.54
2018-12-23T00:37:32.786Z,7.58
2018-12-23T00:40:01.581Z,7.56
2018-12-23T00:42:30.067Z,7.57
2018-12-23T00:44:58.667Z,7.50
2018-12-23T00:47:27.173Z,7.51
2018-12-23T00:49:55.640Z,7.47
2018-12-23T00:52:24.189Z,7.53
2018-12-23T00:54:52.635Z,7.61
2018-12-23T00:57:21.214Z,7.65
2018-12-23T00:59:49.733Z,7.65
2018-12-23T01:02:18.240Z,7.61
2018-12-23T01:04:46.736Z,7.64
2018-12-23T01:07:16.183Z,7.64
2018-12-23T01:09:44.801Z,7.65
2018-12-23T01:12:13.309Z,7.63
2018-12-23T01:14:41.793Z,7.60
2018-12-23T01:17:10.365Z,7.65
2018-12-23T01:19:38.889Z,7.63
2018-12-23T01:22:07.401Z,7.67
2018-12-23T01:24:35.906Z,7.69
2018-12-23T01:27:04.389Z,7.69
2018-12-23T01:29:32.895Z,7.70
2018-12-23T01:32:01.360Z,7.68
2018-12-23T01:34:36.992Z,7.64
2018-12-23T01:37:00.372Z,7.61
2018-12-23T01:39:29.108Z,7.60
2018-12-23T01:41:58.467Z,7.53
2018-12-23T01:44:27.215Z,7.56
2018-12-23T01:46:55.737Z,7.58
2018-12-23T01:49:24.211Z,7.55
2018-12-23T01:51:52.730Z,7.48
2018-12-23T01:54:21.411Z,7.42
2018-12-23T01:56:49.861Z,7.46
2018-12-23T01:59:18.345Z,7.42
2018-12-23T02:01:46.818Z,7.45
2018-12-23T02:04:15.338Z,7.45
2018-12-23T02:06:43.848Z,7.38
2018-12-23T02:09:12.937Z,7.36
2018-12-23T02:11:41.480Z,7.31
2018-12-23T02:14:10.639Z,7.31
2018-12-23T02:16:39.159Z,7.37
2018-12-23T02:19:07.664Z,7.33
2018-12-23T02:21:36.149Z,7.35
2018-12-23T02:24:05.477Z,7.28
2018-12-23T02:26:33.947Z,7.35
2018-12-23T02:29:03.374Z,7.33
2018-12-23T02:31:31.860Z,7.37
2018-12-23T02:34:00.339Z,7.20
2018-12-23T02:36:28.965Z,7.07
2018-12-23T02:38:57.747Z,7.07
2018-12-23T02:41:31.576Z,6.99
2018-12-23T02:43:56.964Z,6.81
2018-12-23T02:46:25.440Z,6.73
2018-12-23T02:48:54.150Z,6.62
2018-12-23T02:51:22.789Z,6.63
2018-12-23T02:53:51.257Z,6.61
2018-12-23T02:56:19.784Z,6.49
2018-12-23T02:58:48.326Z,6.37
2018-12-23T03:01:16.895Z,6.41
2018-12-23T03:03:45.368Z,6.25
2018-12-23T03:06:13.987Z,6.25
2018-12-23T03:08:42.509Z,6.23
2018-12-23T03:11:11.025Z,6.22
2018-12-23T03:13:39.565Z,6.18
2018-12-23T03:16:08.028Z,6.16
2018-12-23T03:18:36.508Z,6.17
2018-12-23T03:21:05.081Z,6.28
2018-12-23T03:23:33.580Z,6.37
2018-12-23T03:26:02.143Z,6.45
2018-12-23T03:28:30.679Z,6.55
2018-12-23T03:30:59.266Z,6.56
2018-12-23T03:33:27.868Z,6.55
2018-12-23T03:35:56.336Z,6.63
2018-12-23T03:38:24.815Z,6.68
2018-12-23T03:40:53.311Z,6.63
2018-12-23T03:43:21.882Z,6.68
2018-12-23T03:45:50.522Z,6.65
2018-12-23T03:48:19.036Z,6.59
2018-12-23T03:50:47.654Z,6.59
2018-12-23T03:53:16.158Z,6.59
2018-12-23T03:55:44.772Z,6.54
2018-12-23T03:58:13.313Z,6.46
2018-12-23T04:00:41.775Z,6.38
2018-12-23T04:03:10.264Z,6.41
2018-12-23T04:05:38.871Z,6.35
2018-12-23T04:08:07.377Z,6.27
2018-12-23T04:10:35.884Z,6.30
2018-12-23T04:13:05.165Z,6.23
2018-12-23T04:15:34.395Z,6.30
2018-12-23T04:18:02.915Z,6.34
2018-12-23T04:20:31.911Z,6.32
2018-12-23T04:23:00.720Z,6.33
2018-12-23T04:25:29.176Z,6.25
2018-12-23T04:27:57.668Z,6.25
2018-12-23T04:30:26.873Z,6.20
2018-12-23T04:32:55.366Z,6.11
2018-12-23T04:35:24.084Z,6.18
2018-12-23T04:37:52.576Z,6.27
2018-12-23T04:40:21.044Z,6.38
2018-12-23T04:42:49.570Z,6.37
2018-12-23T04:45:18.116Z,6.27
2018-12-23T04:47:46.637Z,6.21
2018-12-23T04:50:15.089Z,6.22
2018-12-23T04:52:43.607Z,6.17
2018-12-23T04:55:12.161Z,6.27
2018-12-23T04:57:40.669Z,6.26
2018-12-23T05:00:09.366Z,6.36
2018-12-23T05:02:37.885Z,6.39
2018-12-23T05:05:06.374Z,6.41
2018-12-23T05:07:36.958Z,6.40
2018-12-23T05:10:05.666Z,6.37
2018-12-23T05:12:34.187Z,6.41
2018-12-23T05:15:02.742Z,6.50
2018-12-23T05:17:31.281Z,6.55
2018-12-23T05:19:59.796Z,6.49
2018-12-23T05:22:28.379Z,6.45
2018-12-23T05:24:56.990Z,6.46
2018-12-23T05:27:25.500Z,6.47
2018-12-23T05:29:53.947Z,6.42
2018-12-23T05:32:22.470Z,6.38
2018-12-23T05:34:50.964Z,6.39
2018-12-23T05:37:20.184Z,6.32
2018-12-23T05:39:48.672Z,6.37
2018-12-23T05:42:17.199Z,6.44
2018-12-23T05:44:45.787Z,6.45
2018-12-23T05:47:14.300Z,6.45
2018-12-23T05:49:42.768Z,6.51
2018-12-23T05:52:11.403Z,6.67
2018-12-23T05:54:40.040Z,6.63
2018-12-23T05:57:09.208Z,6.62
2018-12-23T05:59:37.779Z,6.66
2018-12-23T06:02:06.349Z,6.70
2018-12-23T06:04:35.003Z,6.67
2018-12-23T06:07:03.515Z,6.74
2018-12-23T06:09:32.136Z,6.64
2018-12-23T06:12:00.624Z,6.71
2018-12-23T06:14:29.097Z,6.67
2018-12-23T06:16:57.651Z,6.65
2018-12-23T06:19:26.650Z,6.76
2018-12-23T06:22:28.647Z,6.84
2018-12-23T06:24:58.270Z,6.75
2018-12-23T06:27:27.889Z,6.76
2018-12-23T06:29:57.855Z,6.76
2018-12-23T06:32:27.727Z,6.68
2018-12-23T06:34:57.313Z,6.76
2018-12-23T06:37:27.298Z,6.82
2018-12-23T06:39:57.329Z,6.83
2018-12-23T06:42:27.634Z,6.78
2018-12-23T06:44:57.311Z,6.80
2018-12-23T06:47:26.955Z,6.82
2018-12-23T06:49:56.879Z,6.80
2018-12-23T06:52:26.865Z,6.75
2018-12-23T06:54:56.485Z,6.83
2018-12-23T06:57:26.159Z,6.84
2018-12-23T06:59:55.808Z,6.88
2018-12-23T07:02:25.996Z,6.85
2018-12-23T07:04:55.955Z,6.80
2018-12-23T07:07:25.543Z,6.84
2018-12-23T07:09:55.171Z,6.83
2018-12-23T07:12:25.092Z,6.96
2018-12-23T07:14:54.772Z,6.96
2018-12-23T07:17:24.739Z,6.96
2018-12-23T07:19:54.832Z,7.05
2018-12-23T07:22:24.665Z,6.94
2018-12-23T07:24:54.263Z,7.06
2018-12-23T07:27:24.606Z,7.04
2018-12-23T07:29:54.599Z,7.05
2018-12-23T07:32:25.880Z,7.14
2018-12-23T07:34:55.750Z,7.14
2018-12-23T07:37:27.655Z,7.06
2018-12-23T07:39:56.725Z,7.12
2018-12-23T07:42:26.672Z,7.05
2018-12-23T07:44:56.303Z,7.06
2018-12-23T07:47:25.945Z,7.10
2018-12-23T07:49:55.579Z,7.11
2018-12-23T07:52:25.160Z,7.19
2018-12-23T07:54:55.097Z,7.15
2018-12-23T07:57:24.695Z,7.13
2018-12-23T07:59:54.332Z,7.16
2018-12-23T08:02:23.949Z,7.12
2018-12-23T08:04:53.558Z,7.11
2018-12-23T08:07:23.472Z,7.11
2018-12-23T08:09:53.461Z,7.11
2018-12-23T08:12:23.056Z,7.12
2018-12-23T08:14:53.294Z,7.08
2018-12-23T08:17:23.267Z,7.12
2018-12-23T08:19:53.172Z,7.14
2018-12-23T08:22:23.211Z,7.18
2018-12-23T08:24:53.202Z,7.24
2018-12-23T08:27:23.308Z,7.26
2018-12-23T08:29:52.902Z,7.23
2018-12-23T08:32:22.554Z,7.23
2018-12-23T08:34:52.126Z,7.23
2018-12-23T08:37:22.123Z,7.27
2018-12-23T08:39:51.764Z,7.40
2018-12-23T08:42:21.759Z,7.46
2018-12-23T08:44:51.330Z,7.52
2018-12-23T08:47:20.987Z,7.45
2018-12-23T08:49:50.581Z,7.42
2018-12-23T08:52:20.608Z,7.45
2018-12-23T08:54:50.202Z,7.42
2018-12-23T08:57:19.957Z,7.41
2018-12-23T08:59:49.576Z,7.47
2018-12-23T09:02:19.544Z,7.51
2018-12-23T09:04:49.584Z,7.53
2018-12-23T09:07:19.592Z,7.43
2018-12-23T09:09:50.567Z,7.48
2018-12-23T09:12:20.545Z,7.39
2018-12-23T09:14:51.853Z,7.46
2018-12-23T09:17:21.820Z,7.51
2018-12-23T09:19:54.717Z,7.47
2018-12-23T09:22:24.384Z,7.58
2018-12-23T09:24:54.719Z,7.59
2018-12-23T09:27:24.707Z,7.59
2018-12-23T09:29:54.625Z,7.52
2018-12-23T09:32:24.265Z,7.58
2018-12-23T09:34:54.175Z,7.58
2018-12-23T09:37:24.124Z,7.56
2018-12-23T09:39:54.504Z,7.57
2018-12-23T09:42:24.406Z,7.63
2018-12-23T09:44:54.439Z,7.63
2018-12-23T09:47:24.167Z,7.67
2018-12-23T09:49:54.084Z,7.73
2018-12-23T09:52:23.682Z,7.77
2018-12-23T09:54:53.397Z,7.74
2018-12-23T09:57:23.935Z,7.73
2018-12-23T09:59:54.368Z,7.83
2018-12-23T10:02:24.821Z,7.79
2018-12-23T10:04:54.718Z,7.79
2018-12-23T10:07:24.438Z,7.80
2018-12-23T10:09:54.057Z,7.82
2018-12-23T10:12:24.029Z,7.93
2018-12-23T10:14:53.954Z,7.83
2018-12-23T10:17:24.213Z,7.86
2018-12-23T10:19:54.145Z,7.86
2018-12-23T10:22:23.811Z,7.78
2018-12-23T10:24:53.942Z,7.79
2018-12-23T10:27:23.826Z,7.79
2018-12-23T10:29:54.146Z,7.81
2018-12-23T10:32:23.968Z,7.83
2018-12-23T10:34:54.286Z,7.84
2018-12-23T10:37:24.257Z,7.81
2018-12-23T10:39:54.796Z,7.85
2018-12-23T10:42:24.409Z,7.86
2018-12-23T10:44:54.447Z,7.87
2018-12-23T10:47:25.498Z,7.87
2018-12-23T10:49:55.260Z,7.85
2018-12-23T10:52:25.000Z,7.84
2018-12-23T10:54:55.805Z,7.83
2018-12-23T10:57:25.429Z,7.78
2018-12-23T10:59:55.094Z,7.87
2018-12-23T11:02:25.615Z,7.74
2018-12-23T11:04:55.308Z,7.85
2018-12-23T11:07:24.969Z,7.97
2018-12-23T11:10:01.928Z,7.91
2018-12-23T11:12:26.584Z,7.97
2018-12-23T11:14:56.218Z,8.00
2018-12-23T11:17:27.363Z,7.95
2018-12-23T11:19:57.524Z,8.03
2018-12-23T11:22:27.244Z,8.00
2018-12-23T11:24:56.985Z,7.94
2018-12-23T11:27:27.057Z,7.96
2018-12-23T11:29:57.108Z,7.92
2018-12-23T11:32:27.191Z,7.96
2018-12-23T11:34:56.761Z,7.93
2018-12-23T11:37:26.984Z,7.90
2018-12-23T11:39:56.667Z,7.88
2018-12-23T11:42:26.553Z,7.87
2018-12-23T11:44:56.510Z,7.98
2018-12-23T11:47:26.564Z,8.04
2018-12-23T11:49:56.177Z,8.01
2018-12-23T11:52:25.747Z,8.07
2018-12-23T11:54:55.663Z,8.10
2018-12-23T11:57:25.567Z,8.12
2018-12-23T11:59:55.611Z,8.39
2018-12-23T12:02:25.221Z,8.47
2018-12-23T12:04:55.183Z,8.42
2018-12-23T12:07:25.110Z,8.50
2018-12-23T12:09:54.811Z,8.54
2018-12-23T12:12:24.850Z,8.33
2018-12-23T12:14:55.163Z,8.43
2018-12-23T12:17:25.351Z,8.37
2018-12-23T12:19:55.034Z,8.48
2018-12-23T12:22:25.007Z,8.62
2018-12-23T12:24:54.914Z,8.75
2018-12-23T12:27:24.619Z,8.71
2018-12-23T12:29:54.624Z,8.67
2018-12-23T12:32:24.635Z,8.74
2018-12-23T12:34:54.259Z,8.76
2018-12-23T12:37:23.879Z,8.69
2018-12-23T12:39:53.654Z,8.68
2018-12-23T12:42:24.226Z,8.53
2018-12-23T12:44:54.256Z,8.51
2018-12-23T12:47:24.004Z,8.48
2018-12-23T12:49:53.750Z,8.42
2018-12-23T12:52:23.521Z,8.51
2018-12-23T12:54:53.619Z,8.51
2018-12-23T12:57:24.347Z,8.53
2018-12-23T12:59:54.880Z,8.51
2018-12-23T13:02:24.569Z,8.53
2018-12-23T13:04:54.663Z,8.51
2018-12-23T13:07:24.620Z,8.56
2018-12-23T13:09:54.231Z,8.64
2018-12-23T13:12:24.325Z,8.66
2018-12-23T13:14:54.363Z,8.66
2018-12-23T13:17:24.411Z,8.58
2018-12-23T13:19:54.024Z,8.56
2018-12-23T13:22:25.651Z,8.53
2018-12-23T13:24:56.815Z,8.48
2018-12-23T13:27:26.407Z,8.42
2018-12-23T13:29:56.040Z,8.40
2018-12-23T13:32:25.713Z,8.42
2018-12-23T13:34:55.324Z,8.43
2018-12-23T13:37:24.992Z,8.42
2018-12-23T13:39:56.651Z,8.46
2018-12-23T13:42:52.166Z,8.48
2018-12-23T13:46:01.068Z,8.39
2018-12-23T13:49:01.129Z,8.36
2018-12-23T13:51:58.729Z,8.32
2018-12-23T13:55:36.701Z,8.27
2018-12-23T13:58:47.441Z,8.18
2018-12-23T14:02:09.693Z,8.18
2018-12-23T14:05:04.139Z,8.16
2018-12-23T14:08:16.545Z,8.17
2018-12-23T14:11:24.160Z,8.20
2018-12-23T14:13:53.780Z,8.17
2018-12-23T14:16:24.716Z,8.11
2018-12-23T14:18:54.631Z,8.12
2018-12-23T14:21:24.260Z,8.06
2018-12-23T14:23:54.139Z,8.03
2018-12-23T14:26:24.330Z,7.99
2018-12-23T14:28:54.044Z,7.92
2018-12-23T14:31:24.683Z,7.86
2018-12-23T14:33:54.277Z,7.88
2018-12-23T14:36:23.930Z,7.94
2018-12-23T14:38:55.611Z,7.94
2018-12-23T14:41:25.403Z,7.96
2018-12-23T14:43:55.027Z,8.04
2018-12-23T14:46:25.952Z,8.07
2018-12-23T14:48:55.930Z,8.09
2018-12-23T14:51:25.553Z,8.06
2018-12-23T14:53:55.677Z,8.06
2018-12-23T14:56:25.297Z,8.07
2018-12-23T14:58:56.317Z,8.07
2018-12-23T15:01:25.914Z,8.08
2018-12-23T15:03:56.201Z,8.00
2018-12-23T15:06:26.523Z,8.02
2018-12-23T15:08:56.374Z,8.01
2018-12-23T15:11:26.199Z,8.00
2018-12-23T15:13:55.816Z,7.95
2018-12-23T15:16:25.558Z,7.99
2018-12-23T15:18:55.886Z,7.98
2018-12-23T15:21:25.461Z,7.96
2018-12-23T15:23:55.038Z,7.95
2018-12-23T15:26:24.636Z,7.93
2018-12-23T15:28:54.585Z,7.94
2018-12-23T15:31:24.272Z,7.92
2018-12-23T15:33:53.891Z,7.91
2018-12-23T15:36:24.332Z,7.88
2018-12-23T15:38:54.294Z,7.92
2018-12-23T15:41:24.248Z,7.92
2018-12-23T15:43:54.421Z,8.00
2018-12-23T15:46:24.041Z,8.07
2018-12-23T15:48:53.641Z,8.07
2018-12-23T15:51:23.231Z,8.04
2018-12-23T15:53:53.091Z,8.09
2018-12-23T15:56:22.724Z,8.09
2018-12-23T15:58:52.320Z,8.09
2018-12-23T16:01:23.792Z,8.08
2018-12-23T16:03:53.372Z,7.84
2018-12-23T16:06:23.681Z,7.83
2018-12-23T16:08:53.731Z,7.93
2018-12-23T16:11:23.614Z,7.96
2018-12-23T16:13:54.861Z,8.04
2018-12-23T16:16:24.436Z,8.12
2018-12-23T16:18:55.541Z,8.15
2018-12-23T16:21:26.445Z,7.90
2018-12-23T16:23:56.043Z,7.94
2018-12-23T16:26:25.677Z,7.73
2018-12-23T16:28:55.848Z,7.60
2018-12-23T16:31:25.910Z,7.70
2018-12-23T16:33:56.338Z,7.77
2018-12-23T16:36:26.242Z,7.79
2018-12-23T16:38:56.126Z,7.86
2018-12-23T16:41:27.145Z,7.92
2018-12-23T16:43:56.777Z,7.88
2018-12-23T16:46:26.927Z,7.87
2018-12-23T16:48:57.326Z,7.93
2018-12-23T16:51:27.310Z,7.81
2018-12-23T16:53:56.902Z,7.82
2018-12-23T16:56:26.515Z,7.80
2018-12-23T16:58:56.135Z,7.88
2018-12-23T17:01:25.844Z,7.82
2018-12-23T17:03:55.469Z,7.85
2018-12-23T17:06:25.871Z,7.82
2018-12-23T17:08:55.598Z,7.73
2018-12-23T17:11:25.218Z,7.77
2018-12-23T17:13:55.004Z,7.78
2018-12-23T17:16:24.915Z,7.77
2018-12-23T17:18:54.558Z,7.79
2018-12-23T17:21:24.521Z,7.78
2018-12-23T17:23:54.869Z,7.72
2018-12-23T17:26:24.783Z,7.77
2018-12-23T17:28:54.800Z,7.73
2018-12-23T17:31:24.435Z,7.66
2018-12-23T17:33:54.049Z,7.59
2018-12-23T17:36:24.037Z,7.66
2018-12-23T17:38:53.971Z,7.68
2018-12-23T17:41:23.775Z,7.62
2018-12-23T17:43:54.120Z,7.53
2018-12-23T17:46:23.730Z,7.57
2018-12-23T17:48:53.651Z,7.44
2018-12-23T17:51:23.440Z,7.46
2018-12-23T17:53:53.577Z,7.44
2018-12-23T17:56:23.644Z,7.42
2018-12-23T17:58:53.616Z,7.43
2018-12-23T18:01:23.478Z,7.27
2018-12-23T18:03:53.478Z,7.15
2018-12-23T18:06:25.105Z,7.10
2018-12-23T18:08:54.510Z,7.06
2018-12-23T18:11:24.487Z,6.96
2018-12-23T18:13:54.336Z,6.94
2018-12-23T18:16:23.977Z,6.99
2018-12-23T18:18:54.468Z,6.94
2018-12-23T18:21:24.649Z,6.92
2018-12-23T18:23:54.685Z,6.89
2018-12-23T18:26:24.833Z,6.88
2018-12-23T18:28:55.105Z,6.94
2018-12-23T18:31:25.086Z,6.98
2018-12-23T18:33:54.825Z,6.91
2018-12-23T18:36:25.452Z,6.79
2018-12-23T18:38:56.583Z,6.92
2018-12-23T18:41:26.373Z,6.81
2018-12-23T18:43:56.372Z,6.79
2018-12-23T18:46:25.996Z,6.74
2018-12-23T18:48:55.902Z,6.71
2018-12-23T18:51:25.843Z,6.67
2018-12-23T18:53:56.117Z,6.61
2018-12-23T18:56:41.497Z,6.64
2018-12-23T18:59:11.977Z,6.56
2018-12-23T19:01:45.522Z,6.58
2018-12-23T19:04:15.610Z,6.52
2018-12-23T19:06:45.871Z,6.55
2018-12-23T19:09:47.549Z,6.54
2018-12-23T19:13:00.599Z,6.45
2018-12-23T19:15:58.890Z,6.38
2018-12-23T19:19:04.963Z,6.31
2018-12-23T19:22:15.560Z,6.31
2018-12-23T19:25:05.998Z,6.28
2018-12-23T19:28:13.629Z,6.20
2018-12-23T19:31:28.573Z,6.26
2018-12-23T19:34:34.497Z,6.22
2018-12-23T19:37:41.129Z,6.18
2018-12-23T19:40:56.919Z,6.13
2018-12-23T19:44:25.836Z,6.09
2018-12-23T19:47:25.514Z,6.03
2018-12-23T19:50:14.643Z,5.94
2018-12-23T19:53:33.318Z,5.86
2018-12-23T19:56:40.999Z,5.83
2018-12-23T20:00:02.754Z,5.81
2018-12-23T20:03:11.166Z,5.81
2018-12-23T20:06:46.115Z,5.72
2018-12-23T20:09:39.402Z,5.84
2018-12-23T20:12:45.261Z,5.90
2018-12-23T20:16:06.016Z,5.85
2018-12-23T20:19:12.060Z,5.94
2018-12-23T20:22:25.276Z,5.95
2018-12-23T20:25:43.859Z,6.03
2018-12-23T20:28:52.185Z,6.03
2018-12-23T20:31:47.024Z,6.06
2018-12-23T20:34:57.474Z,6.06
2018-12-23T20:38:07.925Z,6.00
2018-12-23T20:41:14.090Z,6.01
2018-12-23T20:44:26.874Z,5.92
2018-12-23T20:47:25.267Z,5.89
2018-12-23T20:50:29.023Z,5.93
2018-12-23T20:53:45.444Z,6.01
2018-12-23T20:57:06.476Z,5.79
2018-12-23T21:00:22.353Z,5.77
2018-12-23T21:03:32.117Z,5.77
2018-12-23T21:06:41.518Z,5.80
2018-12-23T21:09:47.113Z,5.81
2018-12-23T21:12:56.677Z,5.80
2018-12-23T21:16:09.085Z,5.84
2018-12-23T21:19:18.565Z,5.89
2018-12-23T21:22:29.287Z,5.87
2018-12-23T21:25:27.450Z,5.82
2018-12-23T21:28:14.147Z,5.80
2018-12-23T21:31:20.760Z,5.75
2018-12-23T21:34:43.435Z,5.76
2018-12-23T21:37:36.798Z,5.75
2018-12-23T21:41:01.371Z,5.67
2018-12-23T21:43:58.899Z,5.62
2018-12-23T21:47:07.797Z,5.70
2018-12-23T21:50:45.920Z,5.72
2018-12-23T21:54:02.703Z,5.66
2018-12-23T21:57:24.145Z,5.57
2018-12-23T22:00:36.290Z,5.55
2018-12-23T22:03:50.720Z,5.51
2018-12-23T22:07:02.494Z,5.45
2018-12-23T22:10:04.752Z,5.47
2018-12-23T22:13:24.334Z,5.57
2018-12-23T22:15:55.116Z,5.51
2018-12-23T22:18:25.699Z,5.50
2018-12-23T22:20:55.889Z,5.53
2018-12-23T22:23:26.689Z,5.45
2018-12-23T22:25:57.799Z,5.42
2018-12-23T22:28:29.163Z,5.43
2018-12-23T22:30:59.078Z,5.48
2018-12-23T22:33:28.756Z,5.43
2018-12-23T22:35:58.395Z,5.45
2018-12-23T22:38:28.405Z,5.46
2018-12-23T22:41:12.944Z,5.47
2018-12-23T22:43:42.760Z,5.45
2018-12-23T22:46:12.390Z,5.51
2018-12-23T22:48:42.615Z,5.53
2018-12-23T22:51:12.224Z,5.57
2018-12-23T22:53:41.834Z,5.48
2018-12-23T22:56:11.871Z,5.49
2018-12-23T22:58:41.491Z,5.49
2018-12-23T23:01:11.242Z,5.49
2018-12-23T23:03:41.030Z,5.54
2018-12-23T23:06:10.702Z,5.56
2018-12-23T23:08:40.713Z,5.56
2018-12-23T23:11:10.355Z,5.56
2018-12-23T23:13:39.998Z,5.59
2018-12-23T23:16:09.969Z,5.64
2018-12-23T23:18:39.670Z,5.57
2018-12-23T23:21:09.676Z,5.57
2018-12-23T23:23:39.240Z,5.64
2018-12-23T23:26:09.197Z,5.64
2018-12-23T23:28:39.934Z,5.60
2018-12-23T23:31:10.718Z,5.57
2018-12-23T23:33:40.719Z,5.67
2018-12-23T23:36:10.751Z,5.72
2018-12-23T23:38:40.885Z,5.77
2018-12-23T23:41:11.147Z,5.67
2018-12-23T23:43:41.171Z,5.67
2018-12-23T23:46:11.391Z,5.82
2018-12-23T23:48:41.021Z,5.82
2018-12-23T23:51:10.643Z,5.85
2018-12-23T23:53:40.622Z,5.82
2018-12-23T23:56:10.583Z,5.85
2018-12-23T23:58:40.627Z,5.88
